sensor_id;sensor_type;location;lat;lon;timestamp;P1;durP1;ratioP1;P2;durP2;ratioP2
17181;SDS011;8706;48.254;16.422;2024-02-23T00:00:54;6.87;;;6.17;;
17181;SDS011;8706;48.254;16.422;2024-02-23T00:03:22;7.17;;;6.50;;
17181;SDS011;8706;48.254;16.422;2024-02-23T00:05:49;6.47;;;5.87;;
17181;SDS011;8706;48.254;16.422;2024-02-23T00:08:15;6.37;;;5.77;;
17181;SDS011;8706;48.254;16.422;2024-02-23T00:10:41;6.77;;;6.17;;
17181;SDS011;8706;48.254;16.422;2024-02-23T00:13:08;6.77;;;6.17;;
17181;SDS011;8706;48.254;16.422;2024-02-23T00:15:35;6.37;;;5.77;;
17181;SDS011;8706;48.254;16.422;2024-02-23T00:18:02;6.40;;;5.80;;
17181;SDS011;8706;48.254;16.422;2024-02-23T00:20:31;6.73;;;6.03;;
17181;SDS011;8706;48.254;16.422;2024-02-23T00:22:58;6.70;;;6.07;;
17181;SDS011;8706;48.254;16.422;2024-02-23T00:25:24;6.10;;;5.60;;
17181;SDS011;8706;48.254;16.422;2024-02-23T00:27:52;6.43;;;5.83;;
17181;SDS011;8706;48.254;16.422;2024-02-23T00:30:19;6.80;;;6.10;;
17181;SDS011;8706;48.254;16.422;2024-02-23T00:32:46;6.97;;;6.27;;
17181;SDS011;8706;48.254;16.422;2024-02-23T00:35:13;6.40;;;5.80;;
17181;SDS011;8706;48.254;16.422;2024-02-23T00:37:42;6.30;;;5.70;;
17181;SDS011;8706;48.254;16.422;2024-02-23T00:40:09;6.47;;;5.87;;
17181;SDS011;8706;48.254;16.422;2024-02-23T00:42:37;6.77;;;6.13;;
17181;SDS011;8706;48.254;16.422;2024-02-23T00:45:04;6.50;;;5.90;;
17181;SDS011;8706;48.254;16.422;2024-02-23T00:47:32;6.70;;;6.00;;
17181;SDS011;8706;48.254;16.422;2024-02-23T00:50:00;6.67;;;6.03;;
17181;SDS011;8706;48.254;16.422;2024-02-23T00:52:27;6.27;;;5.67;;
17181;SDS011;8706;48.254;16.422;2024-02-23T00:54:55;6.57;;;5.70;;
17181;SDS011;8706;48.254;16.422;2024-02-23T00:57:22;6.40;;;5.80;;
17181;SDS011;8706;48.254;16.422;2024-02-23T00:59:54;6.57;;;5.97;;
17181;SDS011;8706;48.254;16.422;2024-02-23T01:02:21;6.27;;;5.67;;
17181;SDS011;8706;48.254;16.422;2024-02-23T01:04:48;5.67;;;5.17;;
17181;SDS011;8706;48.254;16.422;2024-02-23T01:07:15;6.30;;;5.70;;
17181;SDS011;8706;48.254;16.422;2024-02-23T01:09:42;6.40;;;5.80;;
17181;SDS011;8706;48.254;16.422;2024-02-23T01:12:10;5.83;;;5.33;;
17181;SDS011;8706;48.254;16.422;2024-02-23T01:14:37;6.33;;;5.73;;
17181;SDS011;8706;48.254;16.422;2024-02-23T01:17:04;6.00;;;5.50;;
17181;SDS011;8706;48.254;16.422;2024-02-23T01:19:31;6.20;;;5.60;;
17181;SDS011;8706;48.254;16.422;2024-02-23T01:21:57;6.23;;;5.63;;
17181;SDS011;8706;48.254;16.422;2024-02-23T01:24:25;6.07;;;5.47;;
17181;SDS011;8706;48.254;16.422;2024-02-23T01:26:54;6.37;;;5.77;;
17181;SDS011;8706;48.254;16.422;2024-02-23T01:29:22;5.70;;;5.20;;
17181;SDS011;8706;48.254;16.422;2024-02-23T01:31:50;6.43;;;5.83;;
17181;SDS011;8706;48.254;16.422;2024-02-23T01:34:16;5.80;;;5.30;;
17181;SDS011;8706;48.254;16.422;2024-02-23T01:36:43;6.20;;;5.60;;
17181;SDS011;8706;48.254;16.422;2024-02-23T01:39:10;6.50;;;5.90;;
17181;SDS011;8706;48.254;16.422;2024-02-23T01:41:37;5.50;;;5.00;;
17181;SDS011;8706;48.254;16.422;2024-02-23T01:44:04;5.83;;;5.33;;
17181;SDS011;8706;48.254;16.422;2024-02-23T01:46:33;6.20;;;5.60;;
17181;SDS011;8706;48.254;16.422;2024-02-23T01:48:59;6.33;;;5.73;;
17181;SDS011;8706;48.254;16.422;2024-02-23T01:51:27;5.53;;;5.03;;
17181;SDS011;8706;48.254;16.422;2024-02-23T01:53:53;6.17;;;5.60;;
17181;SDS011;8706;48.254;16.422;2024-02-23T01:56:21;6.20;;;5.60;;
17181;SDS011;8706;48.254;16.422;2024-02-23T01:58:48;5.93;;;5.43;;
17181;SDS011;8706;48.254;16.422;2024-02-23T02:01:15;5.67;;;5.17;;
17181;SDS011;8706;48.254;16.422;2024-02-23T02:03:43;6.17;;;5.63;;
17181;SDS011;8706;48.254;16.422;2024-02-23T02:06:10;5.87;;;5.30;;
17181;SDS011;8706;48.254;16.422;2024-02-23T02:08:38;5.67;;;5.17;;
17181;SDS011;8706;48.254;16.422;2024-02-23T02:11:05;6.10;;;5.50;;
17181;SDS011;8706;48.254;16.422;2024-02-23T02:13:32;6.23;;;5.63;;
17181;SDS011;8706;48.254;16.422;2024-02-23T02:15:59;5.40;;;4.90;;
17181;SDS011;8706;48.254;16.422;2024-02-23T02:18:27;6.30;;;5.70;;
17181;SDS011;8706;48.254;16.422;2024-02-23T02:20:55;5.57;;;5.07;;
17181;SDS011;8706;48.254;16.422;2024-02-23T02:23:24;6.27;;;5.67;;
17181;SDS011;8706;48.254;16.422;2024-02-23T02:25:54;6.27;;;5.67;;
17181;SDS011;8706;48.254;16.422;2024-02-23T02:28:22;6.13;;;5.53;;
17181;SDS011;8706;48.254;16.422;2024-02-23T02:30:50;5.77;;;5.27;;
17181;SDS011;8706;48.254;16.422;2024-02-23T02:33:18;6.13;;;5.53;;
17181;SDS011;8706;48.254;16.422;2024-02-23T02:35:45;5.70;;;5.20;;
17181;SDS011;8706;48.254;16.422;2024-02-23T02:38:13;5.73;;;5.23;;
17181;SDS011;8706;48.254;16.422;2024-02-23T02:40:40;5.60;;;5.10;;
17181;SDS011;8706;48.254;16.422;2024-02-23T02:43:07;5.50;;;5.00;;
17181;SDS011;8706;48.254;16.422;2024-02-23T02:45:36;5.87;;;5.30;;
17181;SDS011;8706;48.254;16.422;2024-02-23T02:48:03;5.90;;;5.40;;
17181;SDS011;8706;48.254;16.422;2024-02-23T02:50:30;5.57;;;5.07;;
17181;SDS011;8706;48.254;16.422;2024-02-23T02:52:57;5.73;;;5.17;;
17181;SDS011;8706;48.254;16.422;2024-02-23T02:55:25;6.07;;;5.47;;
17181;SDS011;8706;48.254;16.422;2024-02-23T02:57:52;5.70;;;5.13;;
17181;SDS011;8706;48.254;16.422;2024-02-23T03:00:19;5.83;;;5.30;;
17181;SDS011;8706;48.254;16.422;2024-02-23T03:02:46;5.53;;;5.03;;
17181;SDS011;8706;48.254;16.422;2024-02-23T03:05:13;5.60;;;5.10;;
17181;SDS011;8706;48.254;16.422;2024-02-23T03:07:40;5.53;;;5.03;;
17181;SDS011;8706;48.254;16.422;2024-02-23T03:10:07;5.73;;;5.13;;
17181;SDS011;8706;48.254;16.422;2024-02-23T03:12:35;5.07;;;4.67;;
17181;SDS011;8706;48.254;16.422;2024-02-23T03:15:02;5.00;;;4.57;;
17181;SDS011;8706;48.254;16.422;2024-02-23T03:17:30;5.50;;;5.00;;
17181;SDS011;8706;48.254;16.422;2024-02-23T03:19:58;5.07;;;4.57;;
17181;SDS011;8706;48.254;16.422;2024-02-23T03:22:24;5.83;;;5.33;;
17181;SDS011;8706;48.254;16.422;2024-02-23T03:24:51;6.10;;;5.60;;
17181;SDS011;8706;48.254;16.422;2024-02-23T03:27:18;5.47;;;4.97;;
17181;SDS011;8706;48.254;16.422;2024-02-23T03:29:47;5.57;;;5.07;;
17181;SDS011;8706;48.254;16.422;2024-02-23T03:32:14;5.17;;;4.67;;
17181;SDS011;8706;48.254;16.422;2024-02-23T03:34:41;5.00;;;4.60;;
17181;SDS011;8706;48.254;16.422;2024-02-23T03:37:08;5.50;;;5.00;;
17181;SDS011;8706;48.254;16.422;2024-02-23T03:39:35;5.50;;;5.00;;
17181;SDS011;8706;48.254;16.422;2024-02-23T03:42:02;4.87;;;4.47;;
17181;SDS011;8706;48.254;16.422;2024-02-23T03:44:29;5.07;;;4.67;;
17181;SDS011;8706;48.254;16.422;2024-02-23T03:46:58;5.40;;;4.90;;
17181;SDS011;8706;48.254;16.422;2024-02-23T03:49:25;5.30;;;4.80;;
17181;SDS011;8706;48.254;16.422;2024-02-23T03:51:51;5.37;;;4.87;;
17181;SDS011;8706;48.254;16.422;2024-02-23T03:54:18;5.37;;;4.87;;
17181;SDS011;8706;48.254;16.422;2024-02-23T03:56:45;5.60;;;5.10;;
17181;SDS011;8706;48.254;16.422;2024-02-23T03:59:12;5.90;;;5.37;;
17181;SDS011;8706;48.254;16.422;2024-02-23T04:01:39;5.27;;;4.80;;
17181;SDS011;8706;48.254;16.422;2024-02-23T04:04:07;5.17;;;4.67;;
17181;SDS011;8706;48.254;16.422;2024-02-23T04:06:34;5.87;;;5.37;;
17181;SDS011;8706;48.254;16.422;2024-02-23T04:09:01;5.97;;;5.43;;
17181;SDS011;8706;48.254;16.422;2024-02-23T04:11:30;5.63;;;5.13;;
17181;SDS011;8706;48.254;16.422;2024-02-23T04:13:57;5.30;;;4.80;;
17181;SDS011;8706;48.254;16.422;2024-02-23T04:16:24;5.40;;;4.90;;
17181;SDS011;8706;48.254;16.422;2024-02-23T04:18:51;5.10;;;4.70;;
17181;SDS011;8706;48.254;16.422;2024-02-23T04:21:20;5.47;;;4.97;;
17181;SDS011;8706;48.254;16.422;2024-02-23T04:23:47;5.23;;;4.80;;
17181;SDS011;8706;48.254;16.422;2024-02-23T04:26:13;5.00;;;4.60;;
17181;SDS011;8706;48.254;16.422;2024-02-23T04:28:40;4.70;;;4.30;;
17181;SDS011;8706;48.254;16.422;2024-02-23T04:31:08;4.93;;;4.53;;
17181;SDS011;8706;48.254;16.422;2024-02-23T04:33:35;5.43;;;4.93;;
17181;SDS011;8706;48.254;16.422;2024-02-23T04:36:02;5.57;;;5.03;;
17181;SDS011;8706;48.254;16.422;2024-02-23T04:38:31;5.60;;;5.10;;
17181;SDS011;8706;48.254;16.422;2024-02-23T04:41:02;5.40;;;4.90;;
17181;SDS011;8706;48.254;16.422;2024-02-23T04:43:30;5.10;;;4.70;;
17181;SDS011;8706;48.254;16.422;2024-02-23T04:45:57;5.10;;;4.70;;
17181;SDS011;8706;48.254;16.422;2024-02-23T04:48:24;4.70;;;4.30;;
17181;SDS011;8706;48.254;16.422;2024-02-23T04:50:50;4.67;;;4.27;;
17181;SDS011;8706;48.254;16.422;2024-02-23T04:53:17;5.37;;;4.97;;
17181;SDS011;8706;48.254;16.422;2024-02-23T04:55:46;4.50;;;4.10;;
17181;SDS011;8706;48.254;16.422;2024-02-23T04:58:13;5.17;;;4.77;;
17181;SDS011;8706;48.254;16.422;2024-02-23T05:00:40;4.93;;;4.53;;
17181;SDS011;8706;48.254;16.422;2024-02-23T05:03:08;4.70;;;4.30;;
17181;SDS011;8706;48.254;16.422;2024-02-23T05:05:35;5.00;;;4.60;;
17181;SDS011;8706;48.254;16.422;2024-02-23T05:08:02;4.80;;;4.37;;
17181;SDS011;8706;48.254;16.422;2024-02-23T05:10:29;4.80;;;4.40;;
17181;SDS011;8706;48.254;16.422;2024-02-23T05:12:57;5.00;;;4.60;;
17181;SDS011;8706;48.254;16.422;2024-02-23T05:15:24;5.00;;;4.60;;
17181;SDS011;8706;48.254;16.422;2024-02-23T05:17:51;5.50;;;5.00;;
17181;SDS011;8706;48.254;16.422;2024-02-23T05:20:18;4.90;;;4.50;;
17181;SDS011;8706;48.254;16.422;2024-02-23T05:22:44;4.50;;;4.10;;
17181;SDS011;8706;48.254;16.422;2024-02-23T05:25:12;4.57;;;4.17;;
17181;SDS011;8706;48.254;16.422;2024-02-23T05:27:39;4.50;;;4.10;;
17181;SDS011;8706;48.254;16.422;2024-02-23T05:30:07;4.50;;;4.10;;
17181;SDS011;8706;48.254;16.422;2024-02-23T05:32:35;5.07;;;4.40;;
17181;SDS011;8706;48.254;16.422;2024-02-23T05:35:02;4.40;;;4.00;;
17181;SDS011;8706;48.254;16.422;2024-02-23T05:37:29;4.60;;;4.20;;
17181;SDS011;8706;48.254;16.422;2024-02-23T05:39:56;4.30;;;3.93;;
17181;SDS011;8706;48.254;16.422;2024-02-23T05:42:24;4.47;;;4.07;;
17181;SDS011;8706;48.254;16.422;2024-02-23T05:44:51;4.47;;;4.07;;
17181;SDS011;8706;48.254;16.422;2024-02-23T05:47:19;4.33;;;3.93;;
17181;SDS011;8706;48.254;16.422;2024-02-23T05:49:47;4.30;;;3.90;;
17181;SDS011;8706;48.254;16.422;2024-02-23T05:52:14;4.63;;;4.23;;
17181;SDS011;8706;48.254;16.422;2024-02-23T05:54:40;4.53;;;4.13;;
17181;SDS011;8706;48.254;16.422;2024-02-23T05:57:07;4.53;;;4.13;;
17181;SDS011;8706;48.254;16.422;2024-02-23T05:59:34;4.10;;;3.80;;
17181;SDS011;8706;48.254;16.422;2024-02-23T06:02:01;4.47;;;4.07;;
17181;SDS011;8706;48.254;16.422;2024-02-23T06:04:29;4.40;;;4.00;;
17181;SDS011;8706;48.254;16.422;2024-02-23T06:06:56;4.47;;;4.07;;
17181;SDS011;8706;48.254;16.422;2024-02-23T06:09:23;4.63;;;4.23;;
17181;SDS011;8706;48.254;16.422;2024-02-23T06:11:50;4.23;;;3.93;;
17181;SDS011;8706;48.254;16.422;2024-02-23T06:14:17;4.40;;;4.00;;
17181;SDS011;8706;48.254;16.422;2024-02-23T06:16:44;4.40;;;4.00;;
17181;SDS011;8706;48.254;16.422;2024-02-23T06:19:11;4.20;;;3.90;;
17181;SDS011;8706;48.254;16.422;2024-02-23T06:21:39;4.57;;;4.17;;
17181;SDS011;8706;48.254;16.422;2024-02-23T06:24:06;5.20;;;4.83;;
17181;SDS011;8706;48.254;16.422;2024-02-23T06:26:33;4.20;;;3.80;;
17181;SDS011;8706;48.254;16.422;2024-02-23T06:29:00;4.50;;;3.80;;
17181;SDS011;8706;48.254;16.422;2024-02-23T06:31:28;3.80;;;3.50;;
17181;SDS011;8706;48.254;16.422;2024-02-23T06:33:55;3.80;;;3.50;;
17181;SDS011;8706;48.254;16.422;2024-02-23T06:36:22;4.40;;;4.07;;
17181;SDS011;8706;48.254;16.422;2024-02-23T06:38:50;4.70;;;4.30;;
17181;SDS011;8706;48.254;16.422;2024-02-23T06:41:17;4.83;;;4.43;;
17181;SDS011;8706;48.254;16.422;2024-02-23T06:43:44;4.47;;;4.13;;
17181;SDS011;8706;48.254;16.422;2024-02-23T06:46:11;4.30;;;4.00;;
17181;SDS011;8706;48.254;16.422;2024-02-23T06:48:38;4.27;;;3.87;;
17181;SDS011;8706;48.254;16.422;2024-02-23T06:51:05;4.30;;;3.90;;
17181;SDS011;8706;48.254;16.422;2024-02-23T06:53:34;4.37;;;4.03;;
17181;SDS011;8706;48.254;16.422;2024-02-23T06:56:03;3.90;;;3.60;;
17181;SDS011;8706;48.254;16.422;2024-02-23T06:58:30;4.07;;;3.77;;
17181;SDS011;8706;48.254;16.422;2024-02-23T07:00:57;4.43;;;4.10;;
17181;SDS011;8706;48.254;16.422;2024-02-23T07:03:24;4.43;;;4.03;;
17181;SDS011;8706;48.254;16.422;2024-02-23T07:05:50;4.50;;;4.10;;
17181;SDS011;8706;48.254;16.422;2024-02-23T07:08:17;4.20;;;3.90;;
17181;SDS011;8706;48.254;16.422;2024-02-23T07:10:44;4.50;;;4.10;;
17181;SDS011;8706;48.254;16.422;2024-02-23T07:13:12;4.70;;;4.30;;
17181;SDS011;8706;48.254;16.422;2024-02-23T07:15:39;4.07;;;3.67;;
17181;SDS011;8706;48.254;16.422;2024-02-23T07:18:06;4.27;;;3.90;;
17181;SDS011;8706;48.254;16.422;2024-02-23T07:20:34;4.60;;;4.13;;
17181;SDS011;8706;48.254;16.422;2024-02-23T07:23:01;4.20;;;3.90;;
17181;SDS011;8706;48.254;16.422;2024-02-23T07:25:28;4.17;;;3.87;;
17181;SDS011;8706;48.254;16.422;2024-02-23T07:27:56;4.20;;;3.80;;
17181;SDS011;8706;48.254;16.422;2024-02-23T07:30:24;3.87;;;3.57;;
17181;SDS011;8706;48.254;16.422;2024-02-23T07:32:51;4.40;;;4.07;;
17181;SDS011;8706;48.254;16.422;2024-02-23T07:35:18;4.33;;;3.93;;
17181;SDS011;8706;48.254;16.422;2024-02-23T07:37:45;3.90;;;3.60;;
17181;SDS011;8706;48.254;16.422;2024-02-23T07:40:12;3.97;;;3.67;;
17181;SDS011;8706;48.254;16.422;2024-02-23T07:42:39;4.00;;;3.70;;
17181;SDS011;8706;48.254;16.422;2024-02-23T07:45:06;4.03;;;3.73;;
17181;SDS011;8706;48.254;16.422;2024-02-23T07:47:35;4.37;;;3.97;;
17181;SDS011;8706;48.254;16.422;2024-02-23T07:50:02;3.90;;;3.60;;
17181;SDS011;8706;48.254;16.422;2024-02-23T07:52:29;3.50;;;3.20;;
17181;SDS011;8706;48.254;16.422;2024-02-23T07:54:56;4.03;;;3.73;;
17181;SDS011;8706;48.254;16.422;2024-02-23T07:57:25;3.60;;;3.30;;
17181;SDS011;8706;48.254;16.422;2024-02-23T07:59:51;3.80;;;3.50;;
17181;SDS011;8706;48.254;16.422;2024-02-23T08:02:18;3.50;;;3.20;;
17181;SDS011;8706;48.254;16.422;2024-02-23T08:04:46;3.63;;;3.33;;
17181;SDS011;8706;48.254;16.422;2024-02-23T08:07:15;3.87;;;3.57;;
17181;SDS011;8706;48.254;16.422;2024-02-23T08:09:41;3.60;;;3.30;;
17181;SDS011;8706;48.254;16.422;2024-02-23T08:12:09;4.00;;;3.70;;
17181;SDS011;8706;48.254;16.422;2024-02-23T08:14:38;3.50;;;3.20;;
17181;SDS011;8706;48.254;16.422;2024-02-23T08:17:06;3.83;;;3.53;;
17181;SDS011;8706;48.254;16.422;2024-02-23T08:19:33;3.70;;;3.40;;
17181;SDS011;8706;48.254;16.422;2024-02-23T08:22:01;3.60;;;3.30;;
17181;SDS011;8706;48.254;16.422;2024-02-23T08:24:28;3.90;;;3.60;;
17181;SDS011;8706;48.254;16.422;2024-02-23T08:26:55;3.73;;;3.43;;
17181;SDS011;8706;48.254;16.422;2024-02-23T08:29:21;4.03;;;3.73;;
17181;SDS011;8706;48.254;16.422;2024-02-23T08:31:48;4.00;;;3.70;;
17181;SDS011;8706;48.254;16.422;2024-02-23T08:34:15;3.67;;;3.37;;
17181;SDS011;8706;48.254;16.422;2024-02-23T08:36:42;3.60;;;3.30;;
17181;SDS011;8706;48.254;16.422;2024-02-23T08:39:11;3.40;;;3.10;;
17181;SDS011;8706;48.254;16.422;2024-02-23T08:41:37;3.60;;;3.30;;
17181;SDS011;8706;48.254;16.422;2024-02-23T08:44:04;3.60;;;3.30;;
17181;SDS011;8706;48.254;16.422;2024-02-23T08:46:31;3.80;;;3.50;;
17181;SDS011;8706;48.254;16.422;2024-02-23T08:48:58;3.70;;;3.40;;
17181;SDS011;8706;48.254;16.422;2024-02-23T08:51:25;3.53;;;3.23;;
17181;SDS011;8706;48.254;16.422;2024-02-23T08:53:52;3.60;;;3.30;;
17181;SDS011;8706;48.254;16.422;2024-02-23T08:56:21;3.20;;;3.00;;
17181;SDS011;8706;48.254;16.422;2024-02-23T08:58:48;3.20;;;2.90;;
17181;SDS011;8706;48.254;16.422;2024-02-23T09:01:15;3.53;;;3.33;;
17181;SDS011;8706;48.254;16.422;2024-02-23T09:03:42;3.57;;;3.27;;
17181;SDS011;8706;48.254;16.422;2024-02-23T09:06:09;3.17;;;2.90;;
17181;SDS011;8706;48.254;16.422;2024-02-23T09:08:36;3.50;;;3.20;;
17181;SDS011;8706;48.254;16.422;2024-02-23T09:11:03;3.50;;;3.20;;
17181;SDS011;8706;48.254;16.422;2024-02-23T09:13:31;3.70;;;3.40;;
17181;SDS011;8706;48.254;16.422;2024-02-23T09:15:58;3.23;;;2.97;;
17181;SDS011;8706;48.254;16.422;2024-02-23T09:18:24;3.10;;;2.90;;
17181;SDS011;8706;48.254;16.422;2024-02-23T09:20:52;3.40;;;3.10;;
17181;SDS011;8706;48.254;16.422;2024-02-23T09:23:19;3.03;;;2.83;;
17181;SDS011;8706;48.254;16.422;2024-02-23T09:25:44;2.97;;;2.77;;
17181;SDS011;8706;48.254;16.422;2024-02-23T09:28:11;3.33;;;3.13;;
17181;SDS011;8706;48.254;16.422;2024-02-23T09:30:40;3.10;;;2.90;;
17181;SDS011;8706;48.254;16.422;2024-02-23T09:33:06;3.20;;;3.00;;
17181;SDS011;8706;48.254;16.422;2024-02-23T09:35:34;3.00;;;2.80;;
17181;SDS011;8706;48.254;16.422;2024-02-23T09:38:01;3.73;;;3.47;;
17181;SDS011;8706;48.254;16.422;2024-02-23T09:40:28;3.43;;;3.20;;
17181;SDS011;8706;48.254;16.422;2024-02-23T09:42:56;3.30;;;3.10;;
17181;SDS011;8706;48.254;16.422;2024-02-23T09:45:24;3.17;;;2.90;;
17181;SDS011;8706;48.254;16.422;2024-02-23T09:47:53;3.20;;;2.90;;
17181;SDS011;8706;48.254;16.422;2024-02-23T09:50:22;4.17;;;3.87;;
17181;SDS011;8706;48.254;16.422;2024-02-23T09:52:50;2.93;;;2.73;;
17181;SDS011;8706;48.254;16.422;2024-02-23T09:55:17;3.60;;;3.30;;
17181;SDS011;8706;48.254;16.422;2024-02-23T09:57:46;3.17;;;2.97;;
17181;SDS011;8706;48.254;16.422;2024-02-23T10:00:15;3.00;;;2.80;;
17181;SDS011;8706;48.254;16.422;2024-02-23T10:02:43;3.00;;;2.80;;
17181;SDS011;8706;48.254;16.422;2024-02-23T10:05:11;2.80;;;2.60;;
17181;SDS011;8706;48.254;16.422;2024-02-23T10:07:40;3.10;;;2.80;;
17181;SDS011;8706;48.254;16.422;2024-02-23T10:10:07;3.00;;;2.80;;
17181;SDS011;8706;48.254;16.422;2024-02-23T10:12:36;3.53;;;3.23;;
17181;SDS011;8706;48.254;16.422;2024-02-23T10:15:03;3.30;;;3.00;;
17181;SDS011;8706;48.254;16.422;2024-02-23T10:17:30;3.43;;;3.17;;
17181;SDS011;8706;48.254;16.422;2024-02-23T10:19:58;3.70;;;3.40;;
17181;SDS011;8706;48.254;16.422;2024-02-23T10:22:31;3.37;;;3.07;;
17181;SDS011;8706;48.254;16.422;2024-02-23T10:24:58;3.57;;;3.27;;
17181;SDS011;8706;48.254;16.422;2024-02-23T10:27:25;3.20;;;3.00;;
17181;SDS011;8706;48.254;16.422;2024-02-23T10:29:52;3.03;;;2.77;;
17181;SDS011;8706;48.254;16.422;2024-02-23T10:32:19;3.13;;;2.93;;
17181;SDS011;8706;48.254;16.422;2024-02-23T10:34:47;3.13;;;2.90;;
17181;SDS011;8706;48.254;16.422;2024-02-23T10:37:15;3.43;;;3.17;;
17181;SDS011;8706;48.254;16.422;2024-02-23T10:39:44;3.43;;;3.13;;
17181;SDS011;8706;48.254;16.422;2024-02-23T10:42:12;3.70;;;3.40;;
17181;SDS011;8706;48.254;16.422;2024-02-23T10:44:42;3.43;;;3.13;;
17181;SDS011;8706;48.254;16.422;2024-02-23T10:47:09;3.90;;;3.60;;
17181;SDS011;8706;48.254;16.422;2024-02-23T10:49:38;3.83;;;3.53;;
17181;SDS011;8706;48.254;16.422;2024-02-23T10:52:06;3.47;;;3.20;;
17181;SDS011;8706;48.254;16.422;2024-02-23T10:54:37;3.63;;;3.33;;
17181;SDS011;8706;48.254;16.422;2024-02-23T10:57:06;4.00;;;3.70;;
17181;SDS011;8706;48.254;16.422;2024-02-23T10:59:33;3.60;;;3.30;;
17181;SDS011;8706;48.254;16.422;2024-02-23T11:02:00;3.43;;;3.13;;
17181;SDS011;8706;48.254;16.422;2024-02-23T11:04:29;4.23;;;3.93;;
17181;SDS011;8706;48.254;16.422;2024-02-23T11:06:58;3.67;;;3.37;;
17181;SDS011;8706;48.254;16.422;2024-02-23T11:09:29;3.50;;;3.23;;
17181;SDS011;8706;48.254;16.422;2024-02-23T11:11:58;3.97;;;3.67;;
17181;SDS011;8706;48.254;16.422;2024-02-23T11:14:32;3.90;;;3.60;;
17181;SDS011;8706;48.254;16.422;2024-02-23T11:17:02;4.00;;;3.70;;
17181;SDS011;8706;48.254;16.422;2024-02-23T11:19:32;3.50;;;3.20;;
17181;SDS011;8706;48.254;16.422;2024-02-23T11:22:00;4.20;;;3.90;;
17181;SDS011;8706;48.254;16.422;2024-02-23T11:24:28;3.67;;;3.37;;
17181;SDS011;8706;48.254;16.422;2024-02-23T11:26:56;4.40;;;4.03;;
17181;SDS011;8706;48.254;16.422;2024-02-23T11:29:25;4.13;;;3.83;;
17181;SDS011;8706;48.254;16.422;2024-02-23T11:31:55;3.60;;;3.30;;
17181;SDS011;8706;48.254;16.422;2024-02-23T11:34:26;3.90;;;3.60;;
17181;SDS011;8706;48.254;16.422;2024-02-23T11:36:54;4.20;;;3.90;;
17181;SDS011;8706;48.254;16.422;2024-02-23T11:39:21;3.93;;;3.63;;
17181;SDS011;8706;48.254;16.422;2024-02-23T11:41:48;3.70;;;3.40;;
17181;SDS011;8706;48.254;16.422;2024-02-23T11:44:16;4.27;;;3.87;;
17181;SDS011;8706;48.254;16.422;2024-02-23T11:46:43;3.80;;;3.50;;
17181;SDS011;8706;48.254;16.422;2024-02-23T11:49:12;4.00;;;3.70;;
17181;SDS011;8706;48.254;16.422;2024-02-23T11:51:39;4.17;;;3.87;;
17181;SDS011;8706;48.254;16.422;2024-02-23T11:54:06;3.53;;;3.23;;
17181;SDS011;8706;48.254;16.422;2024-02-23T11:56:33;3.60;;;3.30;;
17181;SDS011;8706;48.254;16.422;2024-02-23T11:59:01;4.40;;;4.00;;
17181;SDS011;8706;48.254;16.422;2024-02-23T12:01:29;3.53;;;3.20;;
17181;SDS011;8706;48.254;16.422;2024-02-23T12:03:57;4.00;;;3.70;;
17181;SDS011;8706;48.254;16.422;2024-02-23T12:06:25;3.90;;;3.60;;
17181;SDS011;8706;48.254;16.422;2024-02-23T12:08:55;4.30;;;3.90;;
17181;SDS011;8706;48.254;16.422;2024-02-23T12:11:23;4.57;;;4.23;;
17181;SDS011;8706;48.254;16.422;2024-02-23T12:13:50;4.20;;;3.90;;
17181;SDS011;8706;48.254;16.422;2024-02-23T12:16:17;4.33;;;4.03;;
17181;SDS011;8706;48.254;16.422;2024-02-23T12:18:44;4.30;;;4.00;;
17181;SDS011;8706;48.254;16.422;2024-02-23T12:21:11;4.27;;;3.87;;
17181;SDS011;8706;48.254;16.422;2024-02-23T12:23:40;4.20;;;3.90;;
17181;SDS011;8706;48.254;16.422;2024-02-23T12:26:08;4.00;;;3.70;;
17181;SDS011;8706;48.254;16.422;2024-02-23T12:28:34;4.37;;;3.97;;
17181;SDS011;8706;48.254;16.422;2024-02-23T12:31:01;3.97;;;3.67;;
17181;SDS011;8706;48.254;16.422;2024-02-23T12:33:29;4.10;;;3.80;;
17181;SDS011;8706;48.254;16.422;2024-02-23T12:35:58;3.80;;;3.53;;
17181;SDS011;8706;48.254;16.422;2024-02-23T12:38:25;4.63;;;4.23;;
17181;SDS011;8706;48.254;16.422;2024-02-23T12:40:53;3.90;;;3.60;;
17181;SDS011;8706;48.254;16.422;2024-02-23T12:43:20;4.10;;;3.73;;
17181;SDS011;8706;48.254;16.422;2024-02-23T12:45:49;3.80;;;3.50;;
17181;SDS011;8706;48.254;16.422;2024-02-23T12:48:16;4.10;;;3.80;;
17181;SDS011;8706;48.254;16.422;2024-02-23T12:50:44;3.40;;;3.20;;
17181;SDS011;8706;48.254;16.422;2024-02-23T12:53:11;3.73;;;3.43;;
17181;SDS011;8706;48.254;16.422;2024-02-23T12:55:59;4.10;;;3.80;;
17181;SDS011;8706;48.254;16.422;2024-02-23T12:58:27;4.07;;;3.77;;
17181;SDS011;8706;48.254;16.422;2024-02-23T13:00:54;3.97;;;3.67;;
17181;SDS011;8706;48.254;16.422;2024-02-23T13:03:21;4.67;;;4.30;;
17181;SDS011;8706;48.254;16.422;2024-02-23T13:05:49;3.60;;;3.33;;
17181;SDS011;8706;48.254;16.422;2024-02-23T13:08:16;3.70;;;3.50;;
17181;SDS011;8706;48.254;16.422;2024-02-23T13:10:43;4.83;;;4.43;;
17181;SDS011;8706;48.254;16.422;2024-02-23T13:13:12;4.70;;;4.30;;
17181;SDS011;8706;48.254;16.422;2024-02-23T13:15:40;4.00;;;3.70;;
17181;SDS011;8706;48.254;16.422;2024-02-23T13:18:07;4.37;;;4.07;;
17181;SDS011;8706;48.254;16.422;2024-02-23T13:20:34;4.27;;;3.97;;
17181;SDS011;8706;48.254;16.422;2024-02-23T13:23:01;4.00;;;3.73;;
17181;SDS011;8706;48.254;16.422;2024-02-23T13:25:28;4.20;;;3.90;;
17181;SDS011;8706;48.254;16.422;2024-02-23T13:27:55;5.20;;;4.80;;
17181;SDS011;8706;48.254;16.422;2024-02-23T13:30:24;4.30;;;4.00;;
17181;SDS011;8706;48.254;16.422;2024-02-23T13:32:51;4.20;;;3.90;;
17181;SDS011;8706;48.254;16.422;2024-02-23T13:35:18;3.83;;;3.53;;
17181;SDS011;8706;48.254;16.422;2024-02-23T13:37:45;4.50;;;4.20;;
17181;SDS011;8706;48.254;16.422;2024-02-23T13:40:12;4.37;;;4.00;;
17181;SDS011;8706;48.254;16.422;2024-02-23T13:42:39;4.57;;;4.27;;
17181;SDS011;8706;48.254;16.422;2024-02-23T13:45:06;4.10;;;3.80;;
17181;SDS011;8706;48.254;16.422;2024-02-23T13:47:36;4.20;;;3.90;;
17181;SDS011;8706;48.254;16.422;2024-02-23T13:50:03;3.83;;;3.53;;
17181;SDS011;8706;48.254;16.422;2024-02-23T13:52:30;4.13;;;3.83;;
17181;SDS011;8706;48.254;16.422;2024-02-23T13:54:57;4.40;;;4.10;;
17181;SDS011;8706;48.254;16.422;2024-02-23T13:57:24;3.70;;;3.40;;
17181;SDS011;8706;48.254;16.422;2024-02-23T13:59:51;3.40;;;3.20;;
17181;SDS011;8706;48.254;16.422;2024-02-23T14:02:24;3.73;;;3.43;;
17181;SDS011;8706;48.254;16.422;2024-02-23T14:04:59;4.23;;;3.93;;
17181;SDS011;8706;48.254;16.422;2024-02-23T14:07:28;3.97;;;3.67;;
17181;SDS011;8706;48.254;16.422;2024-02-23T14:09:55;4.07;;;3.77;;
17181;SDS011;8706;48.254;16.422;2024-02-23T14:12:22;4.00;;;3.70;;
17181;SDS011;8706;48.254;16.422;2024-02-23T14:14:49;4.00;;;3.70;;
17181;SDS011;8706;48.254;16.422;2024-02-23T14:17:16;3.90;;;3.60;;
17181;SDS011;8706;48.254;16.422;2024-02-23T14:19:43;4.27;;;3.97;;
17181;SDS011;8706;48.254;16.422;2024-02-23T14:22:11;3.60;;;3.37;;
17181;SDS011;8706;48.254;16.422;2024-02-23T14:24:38;3.60;;;3.30;;
17181;SDS011;8706;48.254;16.422;2024-02-23T14:27:05;3.73;;;3.43;;
17181;SDS011;8706;48.254;16.422;2024-02-23T14:29:32;3.57;;;3.27;;
17181;SDS011;8706;48.254;16.422;2024-02-23T14:31:59;3.57;;;3.27;;
17181;SDS011;8706;48.254;16.422;2024-02-23T14:34:27;3.73;;;3.43;;
17181;SDS011;8706;48.254;16.422;2024-02-23T14:36:55;3.60;;;3.30;;
17181;SDS011;8706;48.254;16.422;2024-02-23T14:39:23;4.00;;;3.70;;
17181;SDS011;8706;48.254;16.422;2024-02-23T14:41:50;3.73;;;3.43;;
17181;SDS011;8706;48.254;16.422;2024-02-23T14:44:17;3.10;;;2.90;;
17181;SDS011;8706;48.254;16.422;2024-02-23T14:46:44;4.10;;;3.80;;
17181;SDS011;8706;48.254;16.422;2024-02-23T14:49:10;3.70;;;3.40;;